Terminal Aerodrome Forecast
Issued by NWS

Home | Current Version | Previous Version | Text Only | Print | Product List | Glossary On
Versions: 1 2 3 4 5 6 7 8 9 10 11 12
853
FTUS45 KABQ 140530
TAFLVS
TAF
KLVS 140530Z 1406/1506 04006KT P6SM FEW250
     FM141400 18007KT P6SM SCT200
     FM142000 22012G22KT P6SM FEW250
     FM150100 34009KT P6SM FEW250=

USA.gov is the U.S. government's official web portal to all federal, state and local government web resources and services.